Time,TemperatureF,DewpointF,PressureIn,WindDirection,WindDirectionDegrees,WindSpeedMPH,WindSpeedGustMPH,Humidity,HourlyPrecipIn,Conditions,Clouds,dailyrainin,SoftwareType,DateUTC
2013-07-15 00:01:00,66.0,59.0,30.16,WNW,292,0.0,6.0,79,-99.99,,,0.00,,2013-07-15 04:01:00,
2013-07-15 01:43:00,64.0,55.0,30.15,WSW,247,0.0,5.0,73,-99.99,,,0.00,,2013-07-15 05:43:00,
2013-07-15 01:53:00,64.0,55.0,30.15,WSW,247,0.0,5.0,73,-99.99,,,0.00,,2013-07-15 05:53:00,
2013-07-15 02:02:00,64.0,55.0,30.15,WSW,247,0.0,5.0,73,-99.99,,,0.00,,2013-07-15 06:02:00,
2013-07-15 02:42:00,63.0,56.0,30.14,ESE,112,0.0,4.0,77,-99.99,,,0.00,,2013-07-15 06:42:00,
2013-07-15 02:53:00,63.0,56.0,30.14,ESE,112,0.0,4.0,77,-99.99,,,0.00,,2013-07-15 06:53:00,
2013-07-15 03:01:00,63.0,56.0,30.14,ESE,112,0.0,4.0,77,-99.99,,,0.00,,2013-07-15 07:01:00,
2013-07-15 03:44:00,61.0,53.0,30.15,ESE,112,0.0,0.0,74,-99.99,,,0.00,,2013-07-15 07:44:00,
2013-07-15 03:53:00,61.0,53.0,30.15,ESE,112,0.0,0.0,74,-99.99,,,0.00,,2013-07-15 07:53:00,
2013-07-15 04:02:00,61.0,53.0,30.15,ESE,112,0.0,0.0,74,-99.99,,,0.00,,2013-07-15 08:02:00,
2013-07-15 04:43:00,61.0,52.0,30.14,ESE,112,0.0,4.0,72,-99.99,,,0.00,,2013-07-15 08:43:00,
2013-07-15 04:53:00,61.0,52.0,30.14,ESE,112,0.0,4.0,72,-99.99,,,0.00,,2013-07-15 08:53:00,
2013-07-15 05:02:00,61.0,52.0,30.14,ESE,112,0.0,4.0,72,-99.99,,,0.00,,2013-07-15 09:02:00,
2013-07-15 06:43:00,61.0,52.0,30.13,NE,45,3.0,6.0,72,-99.99,,,0.00,,2013-07-15 10:43:00,
2013-07-15 06:53:00,61.0,52.0,30.13,NE,45,3.0,6.0,72,-99.99,,,0.00,,2013-07-15 10:53:00,
2013-07-15 07:02:00,61.0,52.0,30.13,NE,45,3.0,6.0,72,-99.99,,,0.00,,2013-07-15 11:02:00,
2013-07-15 07:42:00,66.0,62.0,30.15,NE,45,1.0,7.0,87,-99.99,,,0.00,,2013-07-15 11:42:00,
2013-07-15 07:52:00,66.0,62.0,30.15,NE,45,1.0,7.0,87,-99.99,,,0.00,,2013-07-15 11:52:00,
2013-07-15 08:01:00,66.0,62.0,30.15,NE,45,1.0,7.0,87,-99.99,,,0.00,,2013-07-15 12:01:00,
2013-07-15 08:42:00,72.0,70.0,30.13,NE,45,3.0,6.0,94,-99.99,,,0.00,,2013-07-15 12:42:00,
2013-07-15 08:53:00,72.0,70.0,30.13,NE,45,3.0,6.0,94,-99.99,,,0.00,,2013-07-15 12:53:00,
2013-07-15 09:02:00,72.0,70.0,30.13,NE,45,3.0,6.0,94,-99.99,,,0.00,,2013-07-15 13:02:00,
2013-07-15 09:43:00,77.0,71.0,30.11,NE,45,3.0,5.0,83,-99.99,,,0.00,,2013-07-15 13:43:00,
2013-07-15 09:53:00,77.0,71.0,30.11,NE,45,3.0,5.0,83,-99.99,,,0.00,,2013-07-15 13:53:00,
2013-07-15 10:02:00,77.0,71.0,30.11,NE,45,3.0,5.0,83,-99.99,,,0.00,,2013-07-15 14:02:00,
2013-07-15 10:43:00,81.0,65.0,30.09,South,180,8.0,11.0,59,-99.99,,,0.00,,2013-07-15 14:43:00,
2013-07-15 11:02:00,81.0,65.0,30.09,South,180,8.0,11.0,59,-99.99,,,0.00,,2013-07-15 15:02:00,
2013-07-15 11:04:00,85.0,62.0,30.07,South,180,4.0,14.0,46,-99.99,,,-99.99,,2013-07-15 15:04:00,
2013-07-15 11:49:00,85.0,62.0,30.07,South,180,4.0,14.0,46,-99.99,,,-99.99,,2013-07-15 15:49:00,
2013-07-15 12:04:00,87.0,61.0,30.05,SW,225,8.0,15.0,42,-99.99,,,0.00,,2013-07-15 16:04:00,
2013-07-15 12:50:00,87.0,61.0,30.05,SW,225,8.0,15.0,42,-99.99,,,0.00,,2013-07-15 16:50:00,
2013-07-15 13:04:00,89.0,61.0,30.02,West,270,8.0,18.0,39,-99.99,,,0.00,,2013-07-15 17:04:00,
2013-07-15 13:51:00,89.0,61.0,30.02,West,270,8.0,18.0,39,-99.99,,,0.00,,2013-07-15 17:51:00,
2013-07-15 14:04:00,88.0,61.0,30.01,West,270,11.0,17.0,40,-99.99,,,0.00,,2013-07-15 18:04:00,
2013-07-15 14:45:00,88.0,61.0,30.01,West,270,11.0,17.0,40,-99.99,,,0.00,,2013-07-15 18:45:00,
2013-07-15 14:59:00,88.0,61.0,30.01,West,270,11.0,17.0,40,-99.99,,,0.00,,2013-07-15 18:59:00,
2013-07-15 15:04:00,90.0,57.0,29.99,SW,225,8.0,19.0,33,-99.99,,,0.00,,2013-07-15 19:04:00,
2013-07-15 15:57:00,90.0,57.0,29.99,SW,225,8.0,19.0,33,-99.99,,,0.00,,2013-07-15 19:57:00,
2013-07-15 16:43:00,89.0,59.0,30.02,SW,225,10.0,21.0,36,-99.99,,,0.00,,2013-07-15 20:43:00,
2013-07-15 17:00:00,89.0,59.0,30.02,SW,225,10.0,21.0,36,-99.99,,,0.00,,2013-07-15 21:00:00,
2013-07-15 17:48:00,88.0,58.0,30.01,West,270,10.0,23.0,37,-99.99,,,0.00,,2013-07-15 21:48:00,
2013-07-15 18:02:00,88.0,58.0,30.01,West,270,10.0,23.0,37,-99.99,,,0.00,,2013-07-15 22:02:00,
2013-07-15 18:44:00,87.0,60.0,30.02,WSW,247,8.0,22.0,41,-99.99,,,0.00,,2013-07-15 22:44:00,
2013-07-15 18:54:00,87.0,60.0,30.02,WSW,247,8.0,22.0,41,-99.99,,,0.00,,2013-07-15 22:54:00,
2013-07-15 19:50:00,85.0,62.0,30.03,WSW,247,7.0,20.0,47,-99.99,,,0.00,,2013-07-15 23:50:00,
2013-07-15 20:03:00,85.0,62.0,30.03,WSW,247,7.0,20.0,47,-99.99,,,0.00,,2013-07-16 00:03:00,
2013-07-15 21:04:00,78.0,68.0,30.08,WSW,247,4.0,10.0,72,-99.99,,,0.00,,2013-07-16 01:04:00,
2013-07-15 21:49:00,78.0,68.0,30.08,WSW,247,4.0,10.0,72,-99.99,,,0.00,,2013-07-16 01:49:00,
2013-07-15 22:02:00,78.0,68.0,30.08,WSW,247,4.0,10.0,72,-99.99,,,0.00,,2013-07-16 02:02:00,
2013-07-15 23:49:00,71.0,70.0,30.11,West,270,0.0,3.0,96,-99.99,,,0.00,,2013-07-16 03:49:00,
2013-07-15 23:58:00,71.0,70.0,30.11,West,270,0.0,3.0,96,-99.99,,,0.00,,2013-07-16 03:58:00,